aviador You're here:

KTQE Decoded Metar

TEKAMAH in NE, USA
Report Time2018-07-20 08:54:00
UTC Time2018-07-20 09:05:03
Flight Rules vfr VFR
Wind300° at 08 kt
W.Decomp.*RWY 33: 6.4 kt HW 4.8 kt LCW
W.Rank300° ranks 14
Current wind is below 300° avg. (10.1)
Visibility9999 m
Phenomena:N/A
Clouds:N/A
Expected CloudBase > 1,200 ft AGL from Temp-Dew spread
CeilingNone
Temp19°C (ISA +6)
Dew Point16°C (83% RH)
AAT18.1°C
QNH1011 hPa
Density Alt2,044 ft
Elevation1,024 ft
Report Wrong Elevation
Raw Report
KTQE 200854Z AUTO 30008KT 10SM CLR 19/16 A2986 RMK AO2 SLP098
T01890156 51006=

Extra information for KTQE:More info

Metar Taf Metar & Taf Last 4 Metars F.Rules Stats Wind Profile Meteogram Temp Stats Airport Information Weather charts Add Link Nearby VenuesMetar ALERT Operation Metar Decoded Social comments

AIRNAV info for KTQE